sensor_id;sensor_type;location;lat;lon;timestamp;pressure;altitude;pressure_sealevel;temperature;humidity
4326;BME280;58429;49.826;10.880;2023-05-10T00:00:07;97943;;;16.36;56.08
4326;BME280;58429;49.826;10.880;2023-05-10T00:01:06;97948;;;16.37;55.51
4326;BME280;58429;49.826;10.880;2023-05-10T00:02:06;97946;;;16.36;55.32
4326;BME280;58429;49.826;10.880;2023-05-10T00:03:06;97945;;;16.33;55.29
4326;BME280;58429;49.826;10.880;2023-05-10T00:04:06;97947;;;16.32;54.74
4326;BME280;58429;49.826;10.880;2023-05-10T00:05:06;97944;;;16.3;54.82
4326;BME280;58429;49.826;10.880;2023-05-10T00:06:06;97942;;;16.29;54.88
4326;BME280;58429;49.826;10.880;2023-05-10T00:07:06;97941;;;16.26;55
4326;BME280;58429;49.826;10.880;2023-05-10T00:08:06;97936;;;16.26;54.99
4326;BME280;58429;49.826;10.880;2023-05-10T00:09:06;97939;;;16.26;55.01
4326;BME280;58429;49.826;10.880;2023-05-10T00:10:06;97941;;;16.25;55.44
4326;BME280;58429;49.826;10.880;2023-05-10T00:11:06;97936;;;16.29;55.38
4326;BME280;58429;49.826;10.880;2023-05-10T00:12:06;97936;;;16.28;55.64
4326;BME280;58429;49.826;10.880;2023-05-10T00:13:06;97938;;;16.3;56
4326;BME280;58429;49.826;10.880;2023-05-10T00:14:06;97934;;;16.29;56.09
4326;BME280;58429;49.826;10.880;2023-05-10T00:15:07;97932;;;16.3;56.17
4326;BME280;58429;49.826;10.880;2023-05-10T00:16:06;97930;;;16.31;55.99
4326;BME280;58429;49.826;10.880;2023-05-10T00:17:06;97931;;;16.3;55.77
4326;BME280;58429;49.826;10.880;2023-05-10T00:18:07;97938;;;16.29;56.13
4326;BME280;58429;49.826;10.880;2023-05-10T00:19:06;97935;;;16.3;56.5
4326;BME280;58429;49.826;10.880;2023-05-10T00:20:06;97926;;;16.3;56.75
4326;BME280;58429;49.826;10.880;2023-05-10T00:21:06;97928;;;16.26;56.59
4326;BME280;58429;49.826;10.880;2023-05-10T00:22:06;97924;;;16.26;56.95
4326;BME280;58429;49.826;10.880;2023-05-10T00:23:06;97929;;;16.28;57.58
4326;BME280;58429;49.826;10.880;2023-05-10T00:24:06;97927;;;16.28;57.71
4326;BME280;58429;49.826;10.880;2023-05-10T00:25:07;97929;;;16.24;57.86
4326;BME280;58429;49.826;10.880;2023-05-10T00:26:06;97930;;;16.27;58.46
4326;BME280;58429;49.826;10.880;2023-05-10T00:27:06;97930;;;16.28;58.95
4326;BME280;58429;49.826;10.880;2023-05-10T00:28:06;97922;;;16.25;59.39
4326;BME280;58429;49.826;10.880;2023-05-10T00:29:06;97926;;;16.24;59.03
4326;BME280;58429;49.826;10.880;2023-05-10T00:30:07;97929;;;16.23;59.77
4326;BME280;58429;49.826;10.880;2023-05-10T00:31:07;97922;;;16.24;59.85
4326;BME280;58429;49.826;10.880;2023-05-10T00:32:06;97923;;;16.26;60.22
4326;BME280;58429;49.826;10.880;2023-05-10T00:33:06;97927;;;16.24;60.52
4326;BME280;58429;49.826;10.880;2023-05-10T00:34:06;97914;;;16.24;60.32
4326;BME280;58429;49.826;10.880;2023-05-10T00:35:07;97919;;;16.14;60.37
4326;BME280;58429;49.826;10.880;2023-05-10T00:36:07;97923;;;16.16;60.25
4326;BME280;58429;49.826;10.880;2023-05-10T00:37:06;97928;;;16.13;60.6
4326;BME280;58429;49.826;10.880;2023-05-10T00:38:06;97922;;;16.14;60.6
4326;BME280;58429;49.826;10.880;2023-05-10T00:39:06;97923;;;16.16;60.68
4326;BME280;58429;49.826;10.880;2023-05-10T00:40:07;97922;;;16.12;61.1
4326;BME280;58429;49.826;10.880;2023-05-10T00:41:06;97920;;;16.17;61.31
4326;BME280;58429;49.826;10.880;2023-05-10T00:42:06;97921;;;16.17;61.53
4326;BME280;58429;49.826;10.880;2023-05-10T00:43:06;97915;;;16.16;61.5
4326;BME280;58429;49.826;10.880;2023-05-10T00:44:06;97919;;;16.13;61.92
4326;BME280;58429;49.826;10.880;2023-05-10T00:45:07;97920;;;16.09;62.44
4326;BME280;58429;49.826;10.880;2023-05-10T00:46:06;97919;;;16.09;62.56
4326;BME280;58429;49.826;10.880;2023-05-10T00:47:06;97921;;;16.09;63
4326;BME280;58429;49.826;10.880;2023-05-10T00:48:06;97920;;;16.12;63.16
4326;BME280;58429;49.826;10.880;2023-05-10T00:49:06;97920;;;16.09;63.3
4326;BME280;58429;49.826;10.880;2023-05-10T00:50:07;97914;;;16.08;63.72
4326;BME280;58429;49.826;10.880;2023-05-10T00:51:06;97915;;;16.09;63.93
4326;BME280;58429;49.826;10.880;2023-05-10T00:52:06;97923;;;16.08;63.83
4326;BME280;58429;49.826;10.880;2023-05-10T00:53:07;97916;;;16.06;63.68
4326;BME280;58429;49.826;10.880;2023-05-10T00:54:06;97913;;;16.07;63.7
4326;BME280;58429;49.826;10.880;2023-05-10T00:55:07;97914;;;16.02;63.76
4326;BME280;58429;49.826;10.880;2023-05-10T00:56:06;97918;;;16.04;63.98
4326;BME280;58429;49.826;10.880;2023-05-10T00:57:07;97918;;;16;63.93
4326;BME280;58429;49.826;10.880;2023-05-10T00:58:06;97920;;;16.01;64.17
4326;BME280;58429;49.826;10.880;2023-05-10T00:59:07;97917;;;15.99;64.38
4326;BME280;58429;49.826;10.880;2023-05-10T01:00:07;97914;;;16;64.79
4326;BME280;58429;49.826;10.880;2023-05-10T01:01:06;97915;;;15.93;65.3
4326;BME280;58429;49.826;10.880;2023-05-10T01:02:06;97917;;;15.97;65.52
4326;BME280;58429;49.826;10.880;2023-05-10T01:03:06;97923;;;15.93;65.62
4326;BME280;58429;49.826;10.880;2023-05-10T01:04:07;97922;;;15.91;65.75
4326;BME280;58429;49.826;10.880;2023-05-10T01:05:06;97920;;;15.97;66
4326;BME280;58429;49.826;10.880;2023-05-10T01:06:07;97925;;;15.96;66.3
4326;BME280;58429;49.826;10.880;2023-05-10T01:07:06;97919;;;15.92;66.66
4326;BME280;58429;49.826;10.880;2023-05-10T01:08:07;97919;;;15.92;66.59
4326;BME280;58429;49.826;10.880;2023-05-10T01:09:07;97920;;;15.88;66.77
4326;BME280;58429;49.826;10.880;2023-05-10T01:10:07;97914;;;15.88;66.83
4326;BME280;58429;49.826;10.880;2023-05-10T01:11:07;97916;;;15.87;67.38
4326;BME280;58429;49.826;10.880;2023-05-10T01:12:07;97917;;;15.87;67.8
4326;BME280;58429;49.826;10.880;2023-05-10T01:13:06;97923;;;15.86;67.93
4326;BME280;58429;49.826;10.880;2023-05-10T01:14:06;97917;;;15.84;68.08
4326;BME280;58429;49.826;10.880;2023-05-10T01:15:07;97913;;;15.83;68.01
4326;BME280;58429;49.826;10.880;2023-05-10T01:16:07;97921;;;15.83;68.52
4326;BME280;58429;49.826;10.880;2023-05-10T01:17:07;97918;;;15.8;68.84
4326;BME280;58429;49.826;10.880;2023-05-10T01:18:07;97923;;;15.81;69.29
4326;BME280;58429;49.826;10.880;2023-05-10T01:19:09;97915;;;15.77;69.17
4326;BME280;58429;49.826;10.880;2023-05-10T01:20:07;97926;;;15.76;69.24
4326;BME280;58429;49.826;10.880;2023-05-10T01:21:11;97927;;;15.77;69.63
4326;BME280;58429;49.826;10.880;2023-05-10T01:22:10;97922;;;15.74;69.59
4326;BME280;58429;49.826;10.880;2023-05-10T01:23:10;97925;;;15.75;70.01
4326;BME280;58429;49.826;10.880;2023-05-10T01:24:19;97924;;;15.7;70.06
4326;BME280;58429;49.826;10.880;2023-05-10T01:25:11;97918;;;15.67;70.1
4326;BME280;58429;49.826;10.880;2023-05-10T01:26:11;97921;;;15.71;70.25
4326;BME280;58429;49.826;10.880;2023-05-10T01:27:13;97921;;;15.72;70.41
4326;BME280;58429;49.826;10.880;2023-05-10T01:28:13;97918;;;15.64;70.56
4326;BME280;58429;49.826;10.880;2023-05-10T01:29:11;97923;;;15.67;70.96
4326;BME280;58429;49.826;10.880;2023-05-10T01:30:08;97922;;;15.64;71.27
4326;BME280;58429;49.826;10.880;2023-05-10T01:31:08;97919;;;15.62;71.42
4326;BME280;58429;49.826;10.880;2023-05-10T01:32:10;97913;;;15.6;71.09
4326;BME280;58429;49.826;10.880;2023-05-10T01:33:08;97924;;;15.63;70.93
4326;BME280;58429;49.826;10.880;2023-05-10T01:34:07;97925;;;15.6;70.84
4326;BME280;58429;49.826;10.880;2023-05-10T01:35:07;97919;;;15.6;71.4
4326;BME280;58429;49.826;10.880;2023-05-10T01:36:08;97923;;;15.59;71.45
4326;BME280;58429;49.826;10.880;2023-05-10T01:37:07;97921;;;15.58;71.57
4326;BME280;58429;49.826;10.880;2023-05-10T01:38:09;97918;;;15.6;71.77
4326;BME280;58429;49.826;10.880;2023-05-10T01:39:08;97929;;;15.55;71.76
4326;BME280;58429;49.826;10.880;2023-05-10T01:40:08;97926;;;15.59;71.79
4326;BME280;58429;49.826;10.880;2023-05-10T01:41:08;97924;;;15.62;71.91
4326;BME280;58429;49.826;10.880;2023-05-10T01:42:08;97923;;;15.6;72.21
4326;BME280;58429;49.826;10.880;2023-05-10T01:43:08;97921;;;15.58;72.25
4326;BME280;58429;49.826;10.880;2023-05-10T01:44:09;97922;;;15.57;72.61
4326;BME280;58429;49.826;10.880;2023-05-10T01:45:08;97919;;;15.61;72.87
4326;BME280;58429;49.826;10.880;2023-05-10T01:46:07;97920;;;15.58;72.86
4326;BME280;58429;49.826;10.880;2023-05-10T01:47:07;97918;;;15.58;72.97
4326;BME280;58429;49.826;10.880;2023-05-10T01:48:08;97915;;;15.56;73.07
4326;BME280;58429;49.826;10.880;2023-05-10T01:49:07;97917;;;15.57;73.05
4326;BME280;58429;49.826;10.880;2023-05-10T01:50:18;97916;;;15.59;72.89
4326;BME280;58429;49.826;10.880;2023-05-10T01:51:07;97915;;;15.57;73.04
4326;BME280;58429;49.826;10.880;2023-05-10T01:52:08;97917;;;15.54;73.28
4326;BME280;58429;49.826;10.880;2023-05-10T01:53:08;97923;;;15.54;73.36
4326;BME280;58429;49.826;10.880;2023-05-10T01:54:07;97916;;;15.53;73.45
4326;BME280;58429;49.826;10.880;2023-05-10T01:55:08;97923;;;15.54;73.43
4326;BME280;58429;49.826;10.880;2023-05-10T01:56:07;97921;;;15.52;73.4
4326;BME280;58429;49.826;10.880;2023-05-10T01:57:07;97920;;;15.51;73.22
4326;BME280;58429;49.826;10.880;2023-05-10T01:58:08;97925;;;15.52;73.33
4326;BME280;58429;49.826;10.880;2023-05-10T01:59:08;97923;;;15.49;73.62
4326;BME280;58429;49.826;10.880;2023-05-10T02:00:07;97925;;;15.48;73.5
4326;BME280;58429;49.826;10.880;2023-05-10T02:01:07;97931;;;15.49;73.44
4326;BME280;58429;49.826;10.880;2023-05-10T02:02:07;97928;;;15.52;73.7
4326;BME280;58429;49.826;10.880;2023-05-10T02:03:07;97923;;;15.51;73.67
4326;BME280;58429;49.826;10.880;2023-05-10T02:04:07;97927;;;15.5;73.5
4326;BME280;58429;49.826;10.880;2023-05-10T02:05:07;97924;;;15.5;73.75
4326;BME280;58429;49.826;10.880;2023-05-10T02:06:07;97921;;;15.54;73.86
4326;BME280;58429;49.826;10.880;2023-05-10T02:07:07;97931;;;15.51;74.08
4326;BME280;58429;49.826;10.880;2023-05-10T02:08:07;97928;;;15.48;74.09
4326;BME280;58429;49.826;10.880;2023-05-10T02:09:07;97930;;;15.47;74.08
4326;BME280;58429;49.826;10.880;2023-05-10T02:10:07;97931;;;15.52;74.02
4326;BME280;58429;49.826;10.880;2023-05-10T02:11:07;97934;;;15.49;74.16
4326;BME280;58429;49.826;10.880;2023-05-10T02:12:07;97926;;;15.49;74.35
4326;BME280;58429;49.826;10.880;2023-05-10T02:13:07;97929;;;15.53;74.5
4326;BME280;58429;49.826;10.880;2023-05-10T02:14:07;97926;;;15.5;74.63
4326;BME280;58429;49.826;10.880;2023-05-10T02:15:07;97929;;;15.5;74.69
4326;BME280;58429;49.826;10.880;2023-05-10T02:16:07;97929;;;15.51;74.77
4326;BME280;58429;49.826;10.880;2023-05-10T02:17:07;97924;;;15.5;74.81
4326;BME280;58429;49.826;10.880;2023-05-10T02:18:07;97921;;;15.52;74.87
4326;BME280;58429;49.826;10.880;2023-05-10T02:19:07;97919;;;15.49;74.84
4326;BME280;58429;49.826;10.880;2023-05-10T02:20:08;97921;;;15.48;74.91
4326;BME280;58429;49.826;10.880;2023-05-10T02:21:07;97927;;;15.5;75.07
4326;BME280;58429;49.826;10.880;2023-05-10T02:22:07;97921;;;15.46;75.19
4326;BME280;58429;49.826;10.880;2023-05-10T02:23:07;97920;;;15.47;75.34
4326;BME280;58429;49.826;10.880;2023-05-10T02:24:07;97918;;;15.51;75.44
4326;BME280;58429;49.826;10.880;2023-05-10T02:25:07;97917;;;15.49;75.71
4326;BME280;58429;49.826;10.880;2023-05-10T02:26:07;97921;;;15.47;75.88
4326;BME280;58429;49.826;10.880;2023-05-10T02:27:07;97922;;;15.44;76.11
4326;BME280;58429;49.826;10.880;2023-05-10T02:28:07;97916;;;15.4;76.69
4326;BME280;58429;49.826;10.880;2023-05-10T02:29:07;97921;;;15.43;76.26
4326;BME280;58429;49.826;10.880;2023-05-10T02:30:07;97923;;;15.43;76.3
4326;BME280;58429;49.826;10.880;2023-05-10T02:31:07;97924;;;15.44;76.29
4326;BME280;58429;49.826;10.880;2023-05-10T02:32:07;97921;;;15.38;76.27
4326;BME280;58429;49.826;10.880;2023-05-10T02:33:07;97929;;;15.38;76.25
4326;BME280;58429;49.826;10.880;2023-05-10T02:34:07;97927;;;15.38;76.36
4326;BME280;58429;49.826;10.880;2023-05-10T02:35:07;97923;;;15.36;76.38
4326;BME280;58429;49.826;10.880;2023-05-10T02:36:07;97927;;;15.36;76.12
4326;BME280;58429;49.826;10.880;2023-05-10T02:37:07;97932;;;15.37;76.52
4326;BME280;58429;49.826;10.880;2023-05-10T02:38:07;97931;;;15.34;76.49
4326;BME280;58429;49.826;10.880;2023-05-10T02:39:07;97931;;;15.34;76.51
4326;BME280;58429;49.826;10.880;2023-05-10T02:40:07;97934;;;15.34;76.18
4326;BME280;58429;49.826;10.880;2023-05-10T02:41:07;97935;;;15.33;76.21
4326;BME280;58429;49.826;10.880;2023-05-10T02:42:07;97934;;;15.33;76.45
4326;BME280;58429;49.826;10.880;2023-05-10T02:43:07;97935;;;15.32;76.5
4326;BME280;58429;49.826;10.880;2023-05-10T02:44:07;97942;;;15.28;77.14
4326;BME280;58429;49.826;10.880;2023-05-10T02:45:08;97939;;;15.24;76.3
4326;BME280;58429;49.826;10.880;2023-05-10T02:46:07;97941;;;15.24;76.98
4326;BME280;58429;49.826;10.880;2023-05-10T02:47:07;97941;;;15.18;77.3
4326;BME280;58429;49.826;10.880;2023-05-10T02:48:07;97934;;;15.2;77.17
4326;BME280;58429;49.826;10.880;2023-05-10T02:49:07;97942;;;15.16;77.63
4326;BME280;58429;49.826;10.880;2023-05-10T02:50:07;97940;;;15.17;77.85
4326;BME280;58429;49.826;10.880;2023-05-10T02:51:07;97935;;;15.12;77.93
4326;BME280;58429;49.826;10.880;2023-05-10T02:52:07;97934;;;15.08;77.9
4326;BME280;58429;49.826;10.880;2023-05-10T02:53:09;97935;;;15.08;77.94
4326;BME280;58429;49.826;10.880;2023-05-10T02:54:09;97931;;;15.08;78.43
4326;BME280;58429;49.826;10.880;2023-05-10T02:55:07;97933;;;15.08;78.85
4326;BME280;58429;49.826;10.880;2023-05-10T02:56:09;97927;;;15.05;80.84
4326;BME280;58429;49.826;10.880;2023-05-10T02:57:07;97929;;;14.98;80.37
4326;BME280;58429;49.826;10.880;2023-05-10T02:58:07;97928;;;14.88;81.71
4326;BME280;58429;49.826;10.880;2023-05-10T02:59:07;97931;;;14.83;82.08
4326;BME280;58429;49.826;10.880;2023-05-10T03:00:07;97928;;;14.81;82.46
4326;BME280;58429;49.826;10.880;2023-05-10T03:01:07;97929;;;14.81;82.27
4326;BME280;58429;49.826;10.880;2023-05-10T03:02:07;97925;;;14.79;82.92
4326;BME280;58429;49.826;10.880;2023-05-10T03:03:07;97929;;;14.78;82.74
4326;BME280;58429;49.826;10.880;2023-05-10T03:04:07;97932;;;14.73;84.06
4326;BME280;58429;49.826;10.880;2023-05-10T03:05:07;97924;;;14.72;83.23
4326;BME280;58429;49.826;10.880;2023-05-10T03:06:07;97925;;;14.64;83.08
4326;BME280;58429;49.826;10.880;2023-05-10T03:07:07;97928;;;14.69;83.4
4326;BME280;58429;49.826;10.880;2023-05-10T03:08:07;97925;;;14.65;83.47
4326;BME280;58429;49.826;10.880;2023-05-10T03:09:07;97929;;;14.65;83.12
4326;BME280;58429;49.826;10.880;2023-05-10T03:10:07;97928;;;14.69;82.7
4326;BME280;58429;49.826;10.880;2023-05-10T03:11:21;97928;;;14.62;83.44
4326;BME280;58429;49.826;10.880;2023-05-10T03:12:09;97922;;;14.65;83.44
4326;BME280;58429;49.826;10.880;2023-05-10T03:13:09;97926;;;14.61;84.1
4326;BME280;58429;49.826;10.880;2023-05-10T03:14:10;97926;;;14.6;83.92
4326;BME280;58429;49.826;10.880;2023-05-10T03:15:09;97926;;;14.62;83.58
4326;BME280;58429;49.826;10.880;2023-05-10T03:16:08;97924;;;14.63;83.16
4326;BME280;58429;49.826;10.880;2023-05-10T03:17:09;97923;;;14.64;84.17
4326;BME280;58429;49.826;10.880;2023-05-10T03:18:07;97925;;;14.58;84.44
4326;BME280;58429;49.826;10.880;2023-05-10T03:19:11;97923;;;14.59;84.5
4326;BME280;58429;49.826;10.880;2023-05-10T03:20:08;97918;;;14.61;84.45
4326;BME280;58429;49.826;10.880;2023-05-10T03:21:07;97930;;;14.58;84.85
4326;BME280;58429;49.826;10.880;2023-05-10T03:22:08;97928;;;14.57;84.58
4326;BME280;58429;49.826;10.880;2023-05-10T03:23:09;97923;;;14.53;84.72
4326;BME280;58429;49.826;10.880;2023-05-10T03:24:08;97929;;;14.55;84.79
4326;BME280;58429;49.826;10.880;2023-05-10T03:25:07;97922;;;14.46;85
4326;BME280;58429;49.826;10.880;2023-05-10T03:26:07;97922;;;14.5;84.73
4326;BME280;58429;49.826;10.880;2023-05-10T03:27:07;97926;;;14.48;84.89
4326;BME280;58429;49.826;10.880;2023-05-10T03:28:07;97921;;;14.39;84.59
4326;BME280;58429;49.826;10.880;2023-05-10T03:29:07;97925;;;14.45;84.79
4326;BME280;58429;49.826;10.880;2023-05-10T03:30:07;97929;;;14.41;85
4326;BME280;58429;49.826;10.880;2023-05-10T03:31:07;97926;;;14.38;84.54
4326;BME280;58429;49.826;10.880;2023-05-10T03:32:07;97930;;;14.38;84.88
4326;BME280;58429;49.826;10.880;2023-05-10T03:33:07;97922;;;14.37;84.6
4326;BME280;58429;49.826;10.880;2023-05-10T03:34:07;97922;;;14.38;84.79
4326;BME280;58429;49.826;10.880;2023-05-10T03:35:07;97928;;;14.38;84.85
4326;BME280;58429;49.826;10.880;2023-05-10T03:36:07;97928;;;14.34;84.81
4326;BME280;58429;49.826;10.880;2023-05-10T03:37:07;97924;;;14.37;84.49
4326;BME280;58429;49.826;10.880;2023-05-10T03:38:07;97927;;;14.33;84.5
4326;BME280;58429;49.826;10.880;2023-05-10T03:39:07;97932;;;14.32;84.75
4326;BME280;58429;49.826;10.880;2023-05-10T03:40:08;97930;;;14.32;84.7
4326;BME280;58429;49.826;10.880;2023-05-10T03:41:07;97931;;;14.32;84.81
4326;BME280;58429;49.826;10.880;2023-05-10T03:42:07;97932;;;14.3;84.87
4326;BME280;58429;49.826;10.880;2023-05-10T03:43:07;97930;;;14.29;84.81
4326;BME280;58429;49.826;10.880;2023-05-10T03:44:07;97936;;;14.29;84.75
4326;BME280;58429;49.826;10.880;2023-05-10T03:45:07;97936;;;14.22;84.9
4326;BME280;58429;49.826;10.880;2023-05-10T03:46:07;97939;;;14.24;84.92
4326;BME280;58429;49.826;10.880;2023-05-10T03:47:07;97938;;;14.18;84.84
4326;BME280;58429;49.826;10.880;2023-05-10T03:48:07;97934;;;14.2;84.93
4326;BME280;58429;49.826;10.880;2023-05-10T03:49:07;97940;;;14.21;84.63
4326;BME280;58429;49.826;10.880;2023-05-10T03:50:07;97942;;;14.21;84.96
4326;BME280;58429;49.826;10.880;2023-05-10T03:51:07;97941;;;14.16;84.88
4326;BME280;58429;49.826;10.880;2023-05-10T03:52:07;97944;;;14.16;84.62
4326;BME280;58429;49.826;10.880;2023-05-10T03:53:07;97953;;;14.14;84.81
4326;BME280;58429;49.826;10.880;2023-05-10T03:54:07;97944;;;14.16;85.06
4326;BME280;58429;49.826;10.880;2023-05-10T03:55:07;97951;;;14.11;84.97
4326;BME280;58429;49.826;10.880;2023-05-10T03:56:07;97949;;;14.12;85.14
4326;BME280;58429;49.826;10.880;2023-05-10T03:57:07;97950;;;14.06;85.06
4326;BME280;58429;49.826;10.880;2023-05-10T03:58:10;97952;;;14.11;85.15
4326;BME280;58429;49.826;10.880;2023-05-10T03:59:07;97948;;;14.01;84.99
4326;BME280;58429;49.826;10.880;2023-05-10T04:00:07;97957;;;14.02;84.95
4326;BME280;58429;49.826;10.880;2023-05-10T04:01:07;97951;;;14.07;84.87
4326;BME280;58429;49.826;10.880;2023-05-10T04:02:07;97955;;;14.02;85.17
4326;BME280;58429;49.826;10.880;2023-05-10T04:03:07;97961;;;14.01;85.04
4326;BME280;58429;49.826;10.880;2023-05-10T04:04:07;97955;;;14;85.02
4326;BME280;58429;49.826;10.880;2023-05-10T04:05:07;97960;;;14.01;84.82
4326;BME280;58429;49.826;10.880;2023-05-10T04:06:07;97960;;;13.99;84.66
4326;BME280;58429;49.826;10.880;2023-05-10T04:07:07;97961;;;13.98;85.02
4326;BME280;58429;49.826;10.880;2023-05-10T04:08:07;97962;;;13.94;84.73
4326;BME280;58429;49.826;10.880;2023-05-10T04:09:07;97965;;;13.95;84.7
4326;BME280;58429;49.826;10.880;2023-05-10T04:10:07;97967;;;13.92;84.67
4326;BME280;58429;49.826;10.880;2023-05-10T04:11:07;97961;;;13.94;84.58
4326;BME280;58429;49.826;10.880;2023-05-10T04:12:07;97966;;;13.92;84.41
4326;BME280;58429;49.826;10.880;2023-05-10T04:13:07;97965;;;13.95;84.09
4326;BME280;58429;49.826;10.880;2023-05-10T04:14:07;97973;;;13.89;83.6
4326;BME280;58429;49.826;10.880;2023-05-10T04:15:07;97970;;;13.88;83.93
4326;BME280;58429;49.826;10.880;2023-05-10T04:16:07;97977;;;13.86;83.78
4326;BME280;58429;49.826;10.880;2023-05-10T04:17:07;97976;;;13.88;83.76
4326;BME280;58429;49.826;10.880;2023-05-10T04:18:07;97976;;;13.85;83.96
4326;BME280;58429;49.826;10.880;2023-05-10T04:19:07;97979;;;13.86;84.05
4326;BME280;58429;49.826;10.880;2023-05-10T04:20:07;97978;;;13.85;83.94
4326;BME280;58429;49.826;10.880;2023-05-10T04:21:10;97984;;;13.83;83.99
4326;BME280;58429;49.826;10.880;2023-05-10T04:22:07;97984;;;13.79;84.23
4326;BME280;58429;49.826;10.880;2023-05-10T04:23:07;97979;;;13.82;84.15
4326;BME280;58429;49.826;10.880;2023-05-10T04:24:07;97982;;;13.82;84.39
4326;BME280;58429;49.826;10.880;2023-05-10T04:25:07;97983;;;13.8;84.4
4326;BME280;58429;49.826;10.880;2023-05-10T04:26:07;97980;;;13.78;84.2
4326;BME280;58429;49.826;10.880;2023-05-10T04:27:07;97982;;;13.78;84.16
4326;BME280;58429;49.826;10.880;2023-05-10T04:28:08;97990;;;13.78;84.15
4326;BME280;58429;49.826;10.880;2023-05-10T04:29:07;97987;;;13.78;83.92
4326;BME280;58429;49.826;10.880;2023-05-10T04:30:07;97983;;;13.78;84.14
4326;BME280;58429;49.826;10.880;2023-05-10T04:31:08;97990;;;13.77;83.93
4326;BME280;58429;49.826;10.880;2023-05-10T04:32:07;97989;;;13.78;84
4326;BME280;58429;49.826;10.880;2023-05-10T04:33:07;97991;;;13.76;83.79
4326;BME280;58429;49.826;10.880;2023-05-10T04:34:07;97990;;;13.71;83.83
4326;BME280;58429;49.826;10.880;2023-05-10T04:35:07;97989;;;13.73;83.88
4326;BME280;58429;49.826;10.880;2023-05-10T04:36:07;97995;;;13.74;83.89
4326;BME280;58429;49.826;10.880;2023-05-10T04:37:07;97997;;;13.71;84.01
4326;BME280;58429;49.826;10.880;2023-05-10T04:38:07;97993;;;13.67;83.87
4326;BME280;58429;49.826;10.880;2023-05-10T04:39:07;97991;;;13.68;83.52
4326;BME280;58429;49.826;10.880;2023-05-10T04:40:08;97996;;;13.68;83.95
4326;BME280;58429;49.826;10.880;2023-05-10T04:41:08;97998;;;13.63;83.94
4326;BME280;58429;49.826;10.880;2023-05-10T04:42:07;98001;;;13.66;84.09
4326;BME280;58429;49.826;10.880;2023-05-10T04:43:07;98000;;;13.68;83.91
4326;BME280;58429;49.826;10.880;2023-05-10T04:44:07;98001;;;13.63;83.82
4326;BME280;58429;49.826;10.880;2023-05-10T04:45:07;97998;;;13.64;84.06
4326;BME280;58429;49.826;10.880;2023-05-10T04:46:07;97998;;;13.65;83.97
4326;BME280;58429;49.826;10.880;2023-05-10T04:47:07;98003;;;13.62;84
4326;BME280;58429;49.826;10.880;2023-05-10T04:48:07;98007;;;13.63;84.08
4326;BME280;58429;49.826;10.880;2023-05-10T04:49:07;98011;;;13.65;84.05
4326;BME280;58429;49.826;10.880;2023-05-10T04:50:07;98012;;;13.66;84.2
4326;BME280;58429;49.826;10.880;2023-05-10T04:51:07;98010;;;13.65;83.81
4326;BME280;58429;49.826;10.880;2023-05-10T04:52:07;98008;;;13.59;83.73
4326;BME280;58429;49.826;10.880;2023-05-10T04:53:07;98010;;;13.62;83.88
4326;BME280;58429;49.826;10.880;2023-05-10T04:54:07;98016;;;13.62;83.97
4326;BME280;58429;49.826;10.880;2023-05-10T04:55:07;98014;;;13.59;83.84
4326;BME280;58429;49.826;10.880;2023-05-10T04:56:07;98009;;;13.62;83.91
4326;BME280;58429;49.826;10.880;2023-05-10T04:57:07;98017;;;13.58;83.42
4326;BME280;58429;49.826;10.880;2023-05-10T04:58:07;98009;;;13.6;83.39
4326;BME280;58429;49.826;10.880;2023-05-10T04:59:08;98012;;;13.58;83.26
4326;BME280;58429;49.826;10.880;2023-05-10T05:00:08;98010;;;13.57;83.51
4326;BME280;58429;49.826;10.880;2023-05-10T05:01:07;98014;;;13.59;83.44
4326;BME280;58429;49.826;10.880;2023-05-10T05:02:07;98015;;;13.58;83.4
4326;BME280;58429;49.826;10.880;2023-05-10T05:03:07;98012;;;13.58;83.29
4326;BME280;58429;49.826;10.880;2023-05-10T05:04:08;98016;;;13.51;83.13
4326;BME280;58429;49.826;10.880;2023-05-10T05:05:07;98016;;;13.54;82.93
4326;BME280;58429;49.826;10.880;2023-05-10T05:06:08;98024;;;13.54;83.32
4326;BME280;58429;49.826;10.880;2023-05-10T05:07:07;98021;;;13.5;83.22
4326;BME280;58429;49.826;10.880;2023-05-10T05:08:07;98029;;;13.51;83.47
4326;BME280;58429;49.826;10.880;2023-05-10T05:09:07;98023;;;13.48;83.4
4326;BME280;58429;49.826;10.880;2023-05-10T05:10:08;98025;;;13.51;83.38
4326;BME280;58429;49.826;10.880;2023-05-10T05:11:07;98030;;;13.51;83.26
4326;BME280;58429;49.826;10.880;2023-05-10T05:12:07;98026;;;13.45;83.62
4326;BME280;58429;49.826;10.880;2023-05-10T05:13:07;98030;;;13.47;83.27
4326;BME280;58429;49.826;10.880;2023-05-10T05:14:07;98025;;;13.45;83.36
4326;BME280;58429;49.826;10.880;2023-05-10T05:15:08;98022;;;13.52;83.56
4326;BME280;58429;49.826;10.880;2023-05-10T05:16:08;98025;;;13.48;83.63
4326;BME280;58429;49.826;10.880;2023-05-10T05:17:07;98023;;;13.49;83.49
4326;BME280;58429;49.826;10.880;2023-05-10T05:18:07;98032;;;13.48;83.35
4326;BME280;58429;49.826;10.880;2023-05-10T05:19:07;98025;;;13.46;83.32
4326;BME280;58429;49.826;10.880;2023-05-10T05:20:08;98026;;;13.48;83.68
4326;BME280;58429;49.826;10.880;2023-05-10T05:21:13;98023;;;13.43;83.45
4326;BME280;58429;49.826;10.880;2023-05-10T05:22:07;98036;;;13.46;83.61
4326;BME280;58429;49.826;10.880;2023-05-10T05:23:07;98034;;;13.44;83.21
4326;BME280;58429;49.826;10.880;2023-05-10T05:24:07;98036;;;13.43;83.36
4326;BME280;58429;49.826;10.880;2023-05-10T05:25:08;98039;;;13.44;83.23
4326;BME280;58429;49.826;10.880;2023-05-10T05:26:07;98027;;;13.41;83.26
4326;BME280;58429;49.826;10.880;2023-05-10T05:27:07;98040;;;13.46;83.3
4326;BME280;58429;49.826;10.880;2023-05-10T05:28:07;98033;;;13.53;83.53
4326;BME280;58429;49.826;10.880;2023-05-10T05:29:07;98041;;;13.48;83.18
4326;BME280;58429;49.826;10.880;2023-05-10T05:30:08;98045;;;13.57;83.43
4326;BME280;58429;49.826;10.880;2023-05-10T05:31:07;98037;;;13.5;83.35
4326;BME280;58429;49.826;10.880;2023-05-10T05:32:08;98036;;;13.52;83.49